createdAt,value
2023-05-01T00:02:14.427Z,100833.87
2023-05-01T00:04:41.853Z,100835.08
2023-05-01T00:07:09.142Z,100836.89
2023-05-01T00:09:36.281Z,100836.97
2023-05-01T00:12:03.895Z,100839.35
2023-05-01T00:14:31.022Z,100840.86
2023-05-01T00:16:58.334Z,100839.55
2023-05-01T00:19:25.685Z,100843.23
2023-05-01T00:21:53.299Z,100846.02
2023-05-01T00:24:20.461Z,100840.69
2023-05-01T00:26:47.683Z,100845.42
2023-05-01T00:29:14.966Z,100844.33
2023-05-01T00:31:43.035Z,100845.91
2023-05-01T00:34:14.281Z,100849.97
2023-05-01T00:36:41.394Z,100849.80
2023-05-01T00:39:08.670Z,100849.81
2023-05-01T00:41:35.985Z,100847.87
2023-05-01T00:44:03.422Z,100855.64
2023-05-01T00:46:30.793Z,100850.17
2023-05-01T00:48:58.401Z,100853.52
2023-05-01T00:51:27.812Z,100854.14
2023-05-01T00:53:54.828Z,100858.20
2023-05-01T00:56:21.834Z,100859.07
2023-05-01T00:58:51.303Z,100858.30
2023-05-01T01:01:18.988Z,100858.17
2023-05-01T01:03:46.113Z,100858.34
2023-05-01T01:06:24.178Z,100857.71
2023-05-01T01:09:08.375Z,100854.04
2023-05-01T01:12:09.599Z,100853.33
2023-05-01T01:14:48.607Z,100850.89
2023-05-01T01:17:29.802Z,100848.91
2023-05-01T01:20:09.134Z,100846.89
2023-05-01T01:22:36.376Z,100850.46
2023-05-01T01:25:22.666Z,100850.42
2023-05-01T01:28:09.054Z,100852.17
2023-05-01T01:30:48.247Z,100854.40
2023-05-01T01:33:36.786Z,100856.87
2023-05-01T01:36:08.338Z,100853.96
2023-05-01T01:38:42.816Z,100849.10
2023-05-01T01:41:13.936Z,100850.30
2023-05-01T01:43:44.180Z,100847.27
2023-05-01T01:46:11.633Z,100844.50
2023-05-01T01:48:42.382Z,100848.38
2023-05-01T01:51:12.393Z,100847.52
2023-05-01T01:53:39.533Z,100847.42
2023-05-01T01:56:07.451Z,100849.54
2023-05-01T01:58:36.115Z,100847.46
2023-05-01T02:01:03.292Z,100846.77
2023-05-01T02:03:30.638Z,100845.48
2023-05-01T02:05:57.745Z,100847.17
2023-05-01T02:08:24.830Z,100852.28
2023-05-01T02:10:51.912Z,100849.79
2023-05-01T02:13:19.346Z,100856.41
2023-05-01T02:15:46.590Z,100856.58
2023-05-01T02:18:13.788Z,100860.15
2023-05-01T02:20:40.939Z,100862.02
2023-05-01T02:23:08.257Z,100861.10
2023-05-01T02:25:35.910Z,100871.39
2023-05-01T02:28:04.764Z,100869.84
2023-05-01T02:30:32.583Z,100871.33
2023-05-01T02:32:59.889Z,100871.96
2023-05-01T02:35:27.057Z,100874.11
2023-05-01T02:37:54.114Z,100871.10
2023-05-01T02:40:22.105Z,100871.16
2023-05-01T02:42:49.292Z,100873.42
2023-05-01T02:45:20.799Z,100872.49
2023-05-01T02:47:50.491Z,100878.97
2023-05-01T02:50:17.598Z,100872.52
2023-05-01T02:52:45.195Z,100873.77
2023-05-01T02:55:38.447Z,100883.73
2023-05-01T02:58:05.472Z,100881.34
2023-05-01T03:00:32.704Z,100889.27
2023-05-01T03:02:59.780Z,100887.16
2023-05-01T03:05:27.018Z,100890.65
2023-05-01T03:07:54.038Z,100890.76
2023-05-01T03:10:21.206Z,100890.89
2023-05-01T03:12:48.229Z,100891.88
2023-05-01T03:15:15.402Z,100886.96
2023-05-01T03:17:42.590Z,100886.98
2023-05-01T03:20:11.502Z,100890.29
2023-05-01T03:22:39.295Z,100891.55
2023-05-01T03:25:07.431Z,100895.52
2023-05-01T03:27:34.562Z,100896.82
2023-05-01T03:30:01.591Z,100900.33
2023-05-01T03:32:29.691Z,100900.70
2023-05-01T03:34:56.987Z,100896.80
2023-05-01T03:37:24.868Z,100898.25
2023-05-01T03:39:52.761Z,100901.44
2023-05-01T03:42:38.372Z,100907.35
2023-05-01T03:45:11.253Z,100904.86
2023-05-01T03:47:38.586Z,100906.53
2023-05-01T03:50:07.988Z,100905.94
2023-05-01T03:52:36.363Z,100910.48
2023-05-01T03:55:03.737Z,100911.48
2023-05-01T03:57:35.831Z,100917.87
2023-05-01T04:00:03.553Z,100914.54
2023-05-01T04:02:32.008Z,100916.10
2023-05-01T04:04:59.424Z,100924.88
2023-05-01T04:07:26.548Z,100926.39
2023-05-01T04:09:54.026Z,100929.59
2023-05-01T04:12:21.262Z,100927.13
2023-05-01T04:14:48.485Z,100926.98
2023-05-01T04:17:16.011Z,100924.27
2023-05-01T04:19:43.161Z,100924.20
2023-05-01T04:22:10.168Z,100927.21
2023-05-01T04:24:37.588Z,100924.10
2023-05-01T04:27:05.983Z,100928.46
2023-05-01T04:29:33.184Z,100924.17
2023-05-01T04:32:00.535Z,100922.36
2023-05-01T04:34:29.541Z,100919.68
2023-05-01T04:36:57.419Z,100923.54
2023-05-01T04:39:24.578Z,100925.64
2023-05-01T04:41:51.653Z,100927.92
2023-05-01T04:44:19.113Z,100930.42
2023-05-01T04:46:47.014Z,100929.87
2023-05-01T04:49:15.200Z,100936.58
2023-05-01T04:51:42.382Z,100937.05
2023-05-01T04:54:11.218Z,100932.95
2023-05-01T04:56:38.811Z,100939.30
2023-05-01T04:59:05.910Z,100942.80
2023-05-01T05:01:33.370Z,100944.58
2023-05-01T05:04:00.817Z,100948.91
2023-05-01T05:06:29.700Z,100951.80
2023-05-01T05:08:58.017Z,100951.73
2023-05-01T05:11:25.158Z,100951.69
2023-05-01T05:13:59.237Z,100956.09
2023-05-01T05:16:26.670Z,100959.38
2023-05-01T05:18:56.334Z,100964.75
2023-05-01T05:21:24.618Z,100963.55
2023-05-01T05:23:54.124Z,100963.19
2023-05-01T05:26:22.001Z,100965.35
2023-05-01T05:28:51.055Z,100967.29
2023-05-01T05:31:18.174Z,100971.27
2023-05-01T05:33:45.412Z,100979.27
2023-05-01T05:36:13.344Z,100982.59
2023-05-01T05:38:41.625Z,100988.98
2023-05-01T05:41:09.628Z,100990.55
2023-05-01T05:43:37.888Z,100995.86
2023-05-01T05:46:06.112Z,101001.94
2023-05-01T05:48:34.407Z,101000.96
2023-05-01T05:51:02.494Z,101003.61
2023-05-01T05:53:30.285Z,101002.72
2023-05-01T05:55:57.417Z,101000.51
2023-05-01T05:58:24.818Z,101002.58
2023-05-01T06:00:53.331Z,101004.05
2023-05-01T06:03:20.659Z,101004.27
2023-05-01T06:05:48.110Z,101004.48
2023-05-01T06:08:15.921Z,101009.33
2023-05-01T06:10:44.013Z,101012.27
2023-05-01T06:13:14.911Z,101012.15
2023-05-01T06:15:46.852Z,101009.38
2023-05-01T06:18:14.088Z,101013.45
2023-05-01T06:20:41.397Z,101018.97
2023-05-01T06:23:10.258Z,101020.34
2023-05-01T06:26:00.670Z,101025.04
2023-05-01T06:28:27.873Z,101022.22
2023-05-01T06:30:55.362Z,101021.73
2023-05-01T06:33:22.657Z,101021.33
2023-05-01T06:36:00.271Z,101023.19
2023-05-01T06:38:27.871Z,101031.48
2023-05-01T06:40:57.300Z,101038.88
2023-05-01T06:43:30.587Z,101044.98
2023-05-01T06:45:58.075Z,101048.85
2023-05-01T06:48:26.089Z,101048.02
2023-05-01T06:50:54.230Z,101047.45
2023-05-01T06:53:21.319Z,101042.19
2023-05-01T06:55:48.418Z,101045.25
2023-05-01T06:58:23.555Z,101049.05
2023-05-01T07:00:52.468Z,101046.99
2023-05-01T07:03:19.818Z,101050.67
2023-05-01T07:05:46.996Z,101055.30
2023-05-01T07:08:14.923Z,101062.22
2023-05-01T07:10:42.395Z,101068.30
2023-05-01T07:13:09.899Z,101075.18
2023-05-01T07:15:37.368Z,101076.75
2023-05-01T07:18:06.360Z,101072.20
2023-05-01T07:20:34.873Z,101072.81
2023-05-01T07:23:02.104Z,101076.10
2023-05-01T07:25:30.162Z,101079.45
2023-05-01T07:27:57.559Z,101088.55
2023-05-01T07:30:24.912Z,101087.61
2023-05-01T07:32:53.088Z,101087.27
2023-05-01T07:35:20.469Z,101083.44
2023-05-01T07:37:48.020Z,101096.70
2023-05-01T07:40:15.239Z,101093.52
2023-05-01T07:42:42.334Z,101090.33
2023-05-01T07:45:09.838Z,101086.45
2023-05-01T07:47:37.098Z,101090.92
2023-05-01T07:50:04.645Z,101088.34
2023-05-01T07:52:31.785Z,101097.83
2023-05-01T07:54:58.867Z,101102.12
2023-05-01T07:57:26.028Z,101105.38
2023-05-01T07:59:59.323Z,101106.71
2023-05-01T08:02:26.809Z,101106.25
2023-05-01T08:04:54.205Z,101106.14
2023-05-01T08:07:21.294Z,101107.89
2023-05-01T08:09:48.434Z,101106.16
2023-05-01T08:12:15.556Z,101107.67
2023-05-01T08:14:42.674Z,101103.99
2023-05-01T08:17:09.735Z,101108.02
2023-05-01T08:19:36.883Z,101102.30
2023-05-01T08:22:05.084Z,101102.85
2023-05-01T08:24:32.163Z,101108.02
2023-05-01T08:26:59.365Z,101104.23
2023-05-01T08:29:26.437Z,101105.80
2023-05-01T08:31:53.657Z,101105.88
2023-05-01T08:34:20.818Z,101104.02
2023-05-01T08:36:47.799Z,101104.23
2023-05-01T08:39:15.733Z,101108.20
2023-05-01T08:41:46.381Z,101111.91
2023-05-01T08:44:16.971Z,101111.25
2023-05-01T08:46:48.287Z,101112.13
2023-05-01T08:49:15.984Z,101115.05
2023-05-01T08:51:46.213Z,101111.85
2023-05-01T08:54:14.343Z,101113.61
2023-05-01T08:56:42.333Z,101113.51
2023-05-01T08:59:10.057Z,101121.19
2023-05-01T09:01:37.202Z,101106.44
2023-05-01T09:04:04.521Z,101113.97
2023-05-01T09:06:32.674Z,101120.08
2023-05-01T09:09:00.271Z,101131.08
2023-05-01T09:11:27.316Z,101127.16
2023-05-01T09:13:54.404Z,101120.27
2023-05-01T09:16:21.643Z,101124.93
2023-05-01T09:18:49.000Z,101125.58
2023-05-01T09:21:16.523Z,101119.20
2023-05-01T09:23:43.756Z,101130.90
2023-05-01T09:26:11.026Z,101138.06
2023-05-01T09:28:45.372Z,101132.72
2023-05-01T09:31:29.258Z,101115.97
2023-05-01T09:34:00.263Z,101119.85
2023-05-01T09:36:28.141Z,101123.49
2023-05-01T09:38:55.239Z,101129.23
2023-05-01T09:41:22.678Z,101119.52
2023-05-01T09:43:53.724Z,101149.48
2023-05-01T09:46:21.035Z,101132.02
2023-05-01T09:48:55.714Z,101136.58
2023-05-01T09:51:23.803Z,101136.27
2023-05-01T09:53:51.549Z,101135.38
2023-05-01T09:56:19.463Z,101120.03
2023-05-01T09:58:47.380Z,101125.34
2023-05-01T10:01:15.343Z,101121.14
2023-05-01T10:03:43.679Z,101129.17
2023-05-01T10:06:10.839Z,101132.64
2023-05-01T10:08:50.820Z,101129.81
2023-05-01T10:11:18.181Z,101136.77
2023-05-01T10:13:45.273Z,101133.34
2023-05-01T10:16:30.911Z,101123.02
2023-05-01T10:18:58.701Z,101127.12
2023-05-01T10:21:25.947Z,101130.31
2023-05-01T10:23:53.334Z,101136.52
2023-05-01T10:26:20.870Z,101125.39
2023-05-01T10:28:49.174Z,101134.05
2023-05-01T10:31:16.806Z,101130.30
2023-05-01T10:33:44.683Z,101144.23
2023-05-01T10:36:33.505Z,101139.45
2023-05-01T10:39:00.719Z,101137.03
2023-05-01T10:41:58.768Z,101145.52
2023-05-01T10:44:27.204Z,101134.85
2023-05-01T10:46:55.015Z,101146.52
2023-05-01T10:49:22.495Z,101144.11
2023-05-01T10:51:58.753Z,101143.04
2023-05-01T10:54:29.931Z,101143.27
2023-05-01T10:57:01.420Z,101141.95
2023-05-01T10:59:59.968Z,101150.34
2023-05-01T11:02:27.179Z,101159.84
2023-05-01T11:04:56.584Z,101152.42
2023-05-01T11:07:24.117Z,101142.30
2023-05-01T11:09:55.614Z,101155.05
2023-05-01T11:12:51.823Z,101145.69
2023-05-01T11:15:34.487Z,101148.48
2023-05-01T11:18:02.451Z,101144.89
2023-05-01T11:20:29.543Z,101144.05
2023-05-01T11:22:57.368Z,101151.66
2023-05-01T11:25:26.998Z,101144.65
2023-05-01T11:27:55.499Z,101148.46
2023-05-01T11:30:22.706Z,101153.77
2023-05-01T11:32:50.381Z,101158.20
2023-05-01T11:35:19.038Z,101149.57
2023-05-01T11:37:46.432Z,101149.65
2023-05-01T11:40:32.383Z,101145.14
2023-05-01T11:43:06.420Z,101138.93
2023-05-01T11:45:34.420Z,101140.95
2023-05-01T11:48:04.358Z,101144.51
2023-05-01T11:50:38.604Z,101140.82
2023-05-01T11:53:12.015Z,101149.21
2023-05-01T11:55:40.323Z,101153.73
2023-05-01T11:58:07.748Z,101160.73
2023-05-01T12:00:37.011Z,101147.79
2023-05-01T12:03:08.044Z,101149.05
2023-05-01T12:05:37.440Z,101140.34
2023-05-01T12:08:21.240Z,101140.36
2023-05-01T12:10:50.977Z,101145.95
2023-05-01T12:13:18.166Z,101149.45
2023-05-01T12:15:46.762Z,101138.77
2023-05-01T12:18:14.556Z,101130.98
2023-05-01T12:20:59.929Z,101129.25
2023-05-01T12:23:39.560Z,101143.82
2023-05-01T12:26:19.495Z,101141.81
2023-05-01T12:28:56.269Z,101143.86
2023-05-01T12:31:23.782Z,101149.27
2023-05-01T12:34:01.009Z,101145.83
2023-05-01T12:36:29.106Z,101149.27
2023-05-01T12:39:03.732Z,101149.59
2023-05-01T12:41:42.763Z,101140.63
2023-05-01T12:44:23.923Z,101146.73
2023-05-01T12:46:54.174Z,101145.48
2023-05-01T12:49:21.568Z,101144.54
2023-05-01T12:51:49.366Z,101142.67
2023-05-01T12:54:20.657Z,101148.98
2023-05-01T12:56:47.928Z,101152.14
2023-05-01T12:59:27.723Z,101160.79
2023-05-01T13:01:59.338Z,101152.51
2023-05-01T13:04:27.242Z,101149.14
2023-05-01T13:06:56.150Z,101145.23
2023-05-01T13:09:32.618Z,101146.91
2023-05-01T13:12:00.801Z,101148.58
2023-05-01T13:14:27.907Z,101142.09
2023-05-01T13:16:55.645Z,101141.41
2023-05-01T13:19:29.104Z,101141.19
2023-05-01T13:21:57.625Z,101160.08
2023-05-01T13:24:25.527Z,101163.27
2023-05-01T13:27:03.614Z,101157.69
2023-05-01T13:29:32.820Z,101160.79
2023-05-01T13:31:59.959Z,101161.80
2023-05-01T13:34:31.070Z,101157.56
2023-05-01T13:36:58.404Z,101153.40
2023-05-01T13:39:25.506Z,101156.23
2023-05-01T13:41:52.983Z,101157.10
2023-05-01T13:44:20.853Z,101155.48
2023-05-01T13:46:48.480Z,101172.14
2023-05-01T13:49:15.669Z,101172.44
2023-05-01T13:51:43.415Z,101174.98
2023-05-01T13:54:10.972Z,101174.04
2023-05-01T13:56:39.143Z,101178.64
2023-05-01T13:59:07.159Z,101180.42
2023-05-01T14:01:47.677Z,101174.20
2023-05-01T14:04:17.053Z,101172.77
2023-05-01T14:06:44.614Z,101177.23
2023-05-01T14:09:11.747Z,101179.84
2023-05-01T14:11:47.070Z,101177.98
2023-05-01T14:14:15.807Z,101187.80
2023-05-01T14:16:44.097Z,101180.73
2023-05-01T14:19:11.241Z,101176.39
2023-05-01T14:21:40.340Z,101178.61
2023-05-01T14:24:08.009Z,101174.32
2023-05-01T14:26:36.605Z,101180.48
2023-05-01T14:29:04.362Z,101191.89
2023-05-01T14:31:32.238Z,101192.91
2023-05-01T14:34:00.083Z,101181.19
2023-05-01T14:36:34.089Z,101186.92
2023-05-01T14:39:02.812Z,101189.91
2023-05-01T14:41:31.758Z,101185.10
2023-05-01T14:43:59.172Z,101198.34
2023-05-01T14:46:34.380Z,101217.55
2023-05-01T14:49:01.770Z,101206.52
2023-05-01T14:51:29.580Z,101205.38
2023-05-01T14:53:56.667Z,101212.69
2023-05-01T14:56:24.024Z,101210.48
2023-05-01T14:58:51.159Z,101211.75
2023-05-01T15:01:19.534Z,101204.05
2023-05-01T15:03:46.811Z,101211.31
2023-05-01T15:06:14.063Z,101214.85
2023-05-01T15:08:41.197Z,101230.13
2023-05-01T15:11:08.766Z,101217.13
2023-05-01T15:13:36.545Z,101236.56
2023-05-01T15:16:04.598Z,101241.79
2023-05-01T15:18:31.767Z,101249.21
2023-05-01T15:20:58.947Z,101234.45
2023-05-01T15:23:27.555Z,101235.13
2023-05-01T15:25:54.944Z,101237.74
2023-05-01T15:28:22.244Z,101243.39
2023-05-01T15:30:49.401Z,101236.58
2023-05-01T15:33:19.330Z,101238.15
2023-05-01T15:35:49.033Z,101246.98
2023-05-01T15:38:16.186Z,101257.73
2023-05-01T15:40:43.464Z,101275.20
2023-05-01T15:43:10.852Z,101254.05
2023-05-01T15:45:43.470Z,101262.33
2023-05-01T15:48:12.084Z,101269.70
2023-05-01T15:50:39.310Z,101279.58
2023-05-01T15:53:06.409Z,101270.12
2023-05-01T15:55:34.859Z,101271.86
2023-05-01T15:58:03.079Z,101276.59
2023-05-01T16:00:30.208Z,101286.86
2023-05-01T16:02:57.479Z,101284.86
2023-05-01T16:05:25.124Z,101287.52
2023-05-01T16:07:54.299Z,101294.82
2023-05-01T16:10:21.827Z,101296.94
2023-05-01T16:12:50.784Z,101301.66
2023-05-01T16:15:17.837Z,101311.60
2023-05-01T16:17:45.457Z,101310.89
2023-05-01T16:20:14.592Z,101311.12
2023-05-01T16:22:42.292Z,101318.48
2023-05-01T16:25:11.334Z,101322.34
2023-05-01T16:27:44.694Z,101330.55
2023-05-01T16:30:14.551Z,101328.59
2023-05-01T16:32:42.031Z,101327.83
2023-05-01T16:35:16.675Z,101335.69
2023-05-01T16:37:43.738Z,101338.31
2023-05-01T16:40:15.674Z,101344.38
2023-05-01T16:42:43.180Z,101343.50
2023-05-01T16:45:37.265Z,101348.67
2023-05-01T16:48:06.684Z,101351.42
2023-05-01T16:50:34.197Z,101353.21
2023-05-01T16:53:03.859Z,101358.71
2023-05-01T16:55:31.964Z,101357.09
2023-05-01T16:58:00.919Z,101364.27
2023-05-01T17:00:29.551Z,101363.14
2023-05-01T17:02:59.023Z,101361.19
2023-05-01T17:05:26.396Z,101365.59
2023-05-01T17:07:54.566Z,101372.73
2023-05-01T17:10:22.192Z,101375.02
2023-05-01T17:12:49.512Z,101376.04
2023-05-01T17:15:17.089Z,101380.94
2023-05-01T17:17:44.398Z,101389.69
2023-05-01T17:20:12.276Z,101384.21
2023-05-01T17:22:39.471Z,101385.73
2023-05-01T17:25:07.281Z,101390.81
2023-05-01T17:27:34.412Z,101392.36
2023-05-01T17:30:02.099Z,101393.49
2023-05-01T17:32:36.861Z,101394.02
2023-05-01T17:35:05.642Z,101400.86
2023-05-01T17:37:33.284Z,101401.27
2023-05-01T17:40:01.965Z,101410.15
2023-05-01T17:42:29.422Z,101414.82
2023-05-01T17:44:56.668Z,101414.69
2023-05-01T17:47:25.885Z,101421.52
2023-05-01T17:49:53.481Z,101423.52
2023-05-01T17:52:22.222Z,101428.38
2023-05-01T17:54:50.826Z,101429.29
2023-05-01T17:57:18.123Z,101436.77
2023-05-01T17:59:47.831Z,101436.52
2023-05-01T18:02:16.140Z,101444.35
2023-05-01T18:04:46.128Z,101450.92
2023-05-01T18:07:13.277Z,101451.61
2023-05-01T18:09:40.928Z,101455.38
2023-05-01T18:12:08.065Z,101456.82
2023-05-01T18:14:36.295Z,101462.92
2023-05-01T18:17:03.397Z,101465.48
2023-05-01T18:19:30.591Z,101470.73
2023-05-01T18:21:57.805Z,101469.23
2023-05-01T18:24:25.019Z,101477.45
2023-05-01T18:26:52.268Z,101485.56
2023-05-01T18:29:19.362Z,101487.59
2023-05-01T18:31:47.469Z,101492.77
2023-05-01T18:34:14.790Z,101496.27
2023-05-01T18:36:41.948Z,101499.90
2023-05-01T18:39:09.065Z,101503.81
2023-05-01T18:41:36.284Z,101507.23
2023-05-01T18:44:04.384Z,101506.24
2023-05-01T18:46:31.610Z,101506.92
2023-05-01T18:49:00.134Z,101510.27
2023-05-01T18:51:27.402Z,101510.40
2023-05-01T18:53:54.835Z,101513.34
2023-05-01T18:56:24.434Z,101514.73
2023-05-01T18:58:51.609Z,101520.11
2023-05-01T19:01:18.805Z,101519.23
2023-05-01T19:03:47.456Z,101519.83
2023-05-01T19:06:14.569Z,101521.52
2023-05-01T19:08:42.374Z,101525.22
2023-05-01T19:11:09.688Z,101525.23
2023-05-01T19:13:37.020Z,101526.02
2023-05-01T19:16:04.512Z,101532.14
2023-05-01T19:18:33.514Z,101534.36
2023-05-01T19:21:00.685Z,101535.73
2023-05-01T19:23:31.196Z,101539.75
2023-05-01T19:25:58.260Z,101541.80
2023-05-01T19:28:25.582Z,101549.29
2023-05-01T19:30:53.909Z,101549.44
2023-05-01T19:33:22.381Z,101549.33
2023-05-01T19:35:49.984Z,101551.20
2023-05-01T19:38:17.091Z,101551.36
2023-05-01T19:40:46.363Z,101551.39
2023-05-01T19:43:13.907Z,101555.96
2023-05-01T19:45:43.188Z,101555.70
2023-05-01T19:48:10.535Z,101559.13
2023-05-01T19:50:38.073Z,101559.95
2023-05-01T19:53:06.256Z,101561.83
2023-05-01T19:55:33.780Z,101560.50
2023-05-01T19:58:01.118Z,101561.16
2023-05-01T20:00:28.273Z,101564.16
2023-05-01T20:02:57.770Z,101566.01
2023-05-01T20:05:28.346Z,101567.30
2023-05-01T20:07:55.865Z,101567.66
2023-05-01T20:10:26.529Z,101565.85
2023-05-01T20:12:54.236Z,101568.30
2023-05-01T20:15:21.438Z,101567.14
2023-05-01T20:17:51.452Z,101572.82
2023-05-01T20:20:19.455Z,101571.48
2023-05-01T20:22:47.009Z,101574.05
2023-05-01T20:25:14.411Z,101572.00
2023-05-01T20:27:41.833Z,101576.61
2023-05-01T20:30:13.049Z,101575.13
2023-05-01T20:32:44.199Z,101577.09
2023-05-01T20:35:11.784Z,101577.50
2023-05-01T20:37:39.249Z,101580.23
2023-05-01T20:40:07.501Z,101579.05
2023-05-01T20:42:35.162Z,101585.13
2023-05-01T20:45:02.309Z,101589.27
2023-05-01T20:47:29.755Z,101593.23
2023-05-01T20:49:57.573Z,101596.23
2023-05-01T20:52:26.193Z,101595.63
2023-05-01T20:54:53.678Z,101596.45
2023-05-01T20:57:20.728Z,101598.34
2023-05-01T20:59:49.337Z,101598.81
2023-05-01T21:02:17.408Z,101601.89
2023-05-01T21:04:46.362Z,101599.64
2023-05-01T21:07:13.673Z,101604.73
2023-05-01T21:09:47.196Z,101604.85
2023-05-01T21:12:14.797Z,101604.46
2023-05-01T21:14:42.190Z,101606.38
2023-05-01T21:17:09.556Z,101609.31
2023-05-01T21:19:44.012Z,101611.35
2023-05-01T21:22:23.906Z,101613.21
2023-05-01T21:24:55.541Z,101613.08
2023-05-01T21:27:24.220Z,101615.58
2023-05-01T21:30:00.939Z,101623.60
2023-05-01T21:32:32.743Z,101631.33
2023-05-01T21:35:00.823Z,101632.42
2023-05-01T21:37:29.471Z,101633.66
2023-05-01T21:40:00.834Z,101633.30
2023-05-01T21:42:34.989Z,101636.58
2023-05-01T21:45:09.261Z,101637.02
2023-05-01T21:47:41.117Z,101638.55
2023-05-01T21:50:10.029Z,101641.40
2023-05-01T21:52:39.196Z,101648.20
2023-05-01T21:55:11.352Z,101646.44
2023-05-01T21:57:39.209Z,101650.86
2023-05-01T22:00:09.885Z,101650.23
2023-05-01T22:02:43.151Z,101651.16
2023-05-01T22:05:11.199Z,101653.30
2023-05-01T22:07:41.974Z,101654.11
2023-05-01T22:10:10.088Z,101656.44
2023-05-01T22:12:38.627Z,101657.48
2023-05-01T22:15:12.355Z,101662.09
2023-05-01T22:17:39.629Z,101662.11
2023-05-01T22:20:07.411Z,101663.50
2023-05-01T22:22:35.068Z,101667.74
2023-05-01T22:25:02.627Z,101669.52
2023-05-01T22:27:29.967Z,101673.04
2023-05-01T22:29:57.437Z,101676.21
2023-05-01T22:32:25.414Z,101679.58
2023-05-01T22:34:52.534Z,101680.42
2023-05-01T22:37:19.810Z,101681.04
2023-05-01T22:39:46.807Z,101683.80
2023-05-01T22:42:13.938Z,101684.58
2023-05-01T22:44:41.349Z,101684.50
2023-05-01T22:47:08.421Z,101691.20
2023-05-01T22:49:35.587Z,101692.38
2023-05-01T22:52:03.040Z,101694.44
2023-05-01T22:54:30.340Z,101694.73
2023-05-01T22:56:57.359Z,101696.61
2023-05-01T22:59:24.532Z,101697.05
2023-05-01T23:01:51.737Z,101700.28
2023-05-01T23:04:18.947Z,101701.02
2023-05-01T23:06:46.299Z,101700.38
2023-05-01T23:09:13.455Z,101702.17
2023-05-01T23:11:40.963Z,101703.29
2023-05-01T23:14:08.037Z,101706.65
2023-05-01T23:16:38.407Z,101705.80
2023-05-01T23:19:05.538Z,101708.35
2023-05-01T23:21:32.583Z,101706.95
2023-05-01T23:23:59.706Z,101709.31
2023-05-01T23:26:28.973Z,101712.62
2023-05-01T23:28:56.084Z,101708.45
2023-05-01T23:31:25.936Z,101712.77
2023-05-01T23:33:53.547Z,101708.55
2023-05-01T23:36:20.794Z,101710.18
2023-05-01T23:38:47.964Z,101708.41
2023-05-01T23:41:15.224Z,101710.95
2023-05-01T23:43:42.540Z,101712.08
2023-05-01T23:46:09.629Z,101715.78
2023-05-01T23:48:37.237Z,101716.10
2023-05-01T23:51:04.505Z,101717.70
2023-05-01T23:53:31.607Z,101722.45
2023-05-01T23:55:58.689Z,101722.92
2023-05-01T23:58:25.793Z,101728.13
